Time;durP1;ratioP1;P1;durP2;ratioP2;P2;SDS_P1;SDS_P2;PMS_P1;PMS_P2;Temp;Humidity;BMP_temperature;BMP_pressure;BME280_temperature;BME280_humidity;BME280_pressure;Samples;Min_cycle;Max_cycle;Signal;HPM_P1;HPM_P2
2023/07/05 00:00:45;;;;;;;0.30;0.30;;;30.30;78.40;;;30.82;63.06;94830.50;5095905;28;20220;-39
2023/07/05 00:03:12;;;;;;;0.40;0.40;;;30.30;78.40;;;30.79;63.38;94831.97;5095872;28;20508;-38
2023/07/05 00:05:40;;;;;;;0.30;0.30;;;30.30;78.40;;;30.79;63.30;94831.19;5095581;28;20255;-39
2023/07/05 00:08:07;;;;;;;0.30;0.30;;;30.30;78.50;;;30.79;63.50;94825.75;5095509;28;20209;-39
2023/07/05 00:10:35;;;;;;;0.25;0.25;;;30.20;78.50;;;30.77;63.07;94822.56;5094865;28;20216;-39
2023/07/05 00:13:03;;;;;;;0.30;0.30;;;30.20;78.50;;;30.75;63.40;94812.06;5095568;28;20238;-37
2023/07/05 00:15:31;;;;;;;0.30;0.30;;;30.20;78.50;;;30.74;63.37;94817.81;5095436;28;20223;-38
2023/07/05 00:17:59;;;;;;;0.30;0.30;;;30.20;78.50;;;30.73;63.78;94818.94;5095260;28;20252;-38
2023/07/05 00:20:27;;;;;;;0.40;0.40;;;30.20;78.60;;;30.72;63.09;94826.25;5095334;28;20187;-37
2023/07/05 00:22:54;;;;;;;0.30;0.30;;;30.20;78.60;;;30.70;63.87;94816.84;5095605;28;20187;-37
2023/07/05 00:25:21;;;;;;;0.30;0.30;;;30.20;78.60;;;30.68;63.71;94819.91;5095336;28;20249;-37
2023/07/05 00:27:48;;;;;;;0.20;0.20;;;30.20;78.60;;;30.67;63.21;94818.31;5095078;28;20641;-37
2023/07/05 00:30:17;;;;;;;0.30;0.30;;;30.20;78.70;;;30.66;63.73;94817.53;5095436;28;20213;-37
2023/07/05 00:32:44;;;;;;;0.30;0.30;;;30.20;78.70;;;30.64;63.35;94810.84;5095660;28;20207;-37
2023/07/05 00:35:11;;;;;;;0.20;0.20;;;30.20;78.70;;;30.63;63.43;94803.84;5095353;28;20265;-37
2023/07/05 00:37:38;;;;;;;0.40;0.40;;;30.10;78.70;;;30.62;63.45;94811.16;5095768;28;20271;-38
2023/07/05 00:40:07;;;;;;;0.30;0.30;;;30.10;78.70;;;30.61;63.81;94809.56;5093917;28;20206;-37
2023/07/05 00:42:34;;;;;;;0.20;0.20;;;30.10;78.80;;;30.60;63.87;94807.16;5094808;28;20630;-37
2023/07/05 00:45:10;;;;;;;0.28;0.28;;;30.10;78.80;;;30.59;63.65;94805.56;5094092;28;20237;-38
2023/07/05 00:47:42;;;;;;;0.30;0.30;;;30.10;79.00;;;30.57;63.85;94797.00;5095130;28;20260;-37
2023/07/05 00:50:38;;;;;;;0.30;0.30;;;30.10;78.90;;;30.53;64.31;94801.47;5094965;28;20218;-37
2023/07/05 00:53:08;;;;;;;0.30;0.30;;;30.10;78.90;;;30.52;63.64;94794.44;5093794;28;20304;-38
2023/07/05 00:55:36;;;;;;;0.38;0.38;;;30.10;78.90;;;30.53;63.85;94793.34;5094104;28;20198;-37
2023/07/05 00:58:04;;;;;;;0.30;0.30;;;30.00;78.80;;;30.52;64.23;94794.44;5094459;28;20205;-38
2023/07/05 01:00:31;;;;;;;0.40;0.40;;;30.00;78.80;;;30.50;63.83;94792.06;5094946;28;20182;-37
2023/07/05 01:03:03;;;;;;;0.30;0.30;;;30.00;78.90;;;30.49;63.90;94790.44;5094912;28;20218;-37
2023/07/05 01:05:31;;;;;;;0.25;0.25;;;30.00;78.90;;;30.48;63.95;94786.16;5077293;28;20623;-38
2023/07/05 01:07:58;;;;;;;0.30;0.30;;;30.00;79.00;;;30.45;64.08;94779.47;5094823;28;20195;-37
2023/07/05 01:10:26;;;;;;;0.30;0.30;;;30.00;79.00;;;30.46;64.14;94780.28;5093980;28;20248;-37
2023/07/05 01:13:18;;;;;;;0.30;0.30;;;30.00;79.00;;;30.43;64.15;94773.59;5094729;28;20221;-38
2023/07/05 01:16:06;;;;;;;0.40;0.40;;;30.00;79.10;;;30.40;64.33;94779.66;5095070;28;20183;-37
2023/07/05 01:19:05;;;;;;;0.30;0.30;;;30.00;79.20;;;30.39;63.98;94782.69;5094870;28;20603;-39
2023/07/05 01:21:45;;;;;;;0.20;0.20;;;30.00;79.20;;;30.37;64.16;94771.38;5089500;28;20206;-37
2023/07/05 01:24:58;;;;;;;0.20;0.20;;;30.00;79.20;;;30.34;64.28;94773.59;5077121;28;20191;-37
2023/07/05 01:27:51;;;;;;;0.40;0.40;;;30.00;79.30;;;30.32;64.81;94772.34;5093561;28;20264;-38
2023/07/05 01:30:32;;;;;;;0.30;0.30;;;29.90;79.10;;;30.31;64.23;94773.44;5088620;28;20276;-37
2023/07/05 01:33:34;;;;;;;0.20;0.20;;;29.90;79.30;;;30.29;64.38;94775.69;5093627;28;20222;-39
2023/07/05 01:36:02;;;;;;;0.30;0.30;;;29.90;79.30;;;30.29;64.28;94768.38;5084632;28;20247;-40
2023/07/05 01:38:29;;;;;;;0.20;0.20;;;29.90;79.20;;;30.28;64.33;94763.28;5093500;28;20702;-39
2023/07/05 01:41:02;;;;;;;0.30;0.30;;;29.90;79.30;;;30.28;64.42;94766.78;5094565;28;20211;-38
2023/07/05 01:43:32;;;;;;;0.30;0.30;;;29.80;79.40;;;30.26;64.91;94760.91;5094871;28;20183;-41
2023/07/05 01:46:25;;;;;;;0.30;0.30;;;29.80;79.30;;;30.24;64.30;94756.94;5093513;28;20595;-41
2023/07/05 01:49:22;;;;;;;0.30;0.30;;;29.80;79.50;;;30.24;64.47;94759.66;5094576;28;20191;-39
2023/07/05 01:52:27;;;;;;;0.30;0.30;;;29.80;79.50;;;30.18;65.07;94757.09;5094438;28;20219;-38
2023/07/05 01:55:20;;;;;;;0.20;0.20;;;29.80;79.50;;;30.19;65.02;94757.91;5088348;28;20292;-39
2023/07/05 01:58:00;;;;;;;0.20;0.20;;;29.80;79.60;;;30.16;64.99;94756.63;5097258;28;20213;-39
2023/07/05 02:00:30;;;;;;;0.30;0.30;;;29.80;79.60;;;30.18;64.56;94759.00;5080696;28;20576;-39
2023/07/05 02:03:03;;;;;;;0.40;0.40;;;29.80;79.40;;;30.18;64.76;94769.81;5080201;28;20260;-38
2023/07/05 02:05:32;;;;;;;0.30;0.30;;;29.80;79.60;;;30.17;65.24;94765.53;5097530;28;20192;-39
2023/07/05 02:07:59;;;;;;;0.22;0.22;;;29.80;79.50;;;30.16;64.87;94767.47;5096794;28;20282;-40
2023/07/05 02:10:27;;;;;;;0.30;0.30;;;29.80;79.60;;;30.16;64.94;94755.81;5098028;28;20245;-39
2023/07/05 02:12:57;;;;;;;0.20;0.20;;;29.70;79.60;;;30.16;64.84;94755.81;5097837;28;20277;-39
2023/07/05 02:15:26;;;;;;;0.40;0.40;;;29.70;79.60;;;30.15;64.93;94757.75;5097359;28;20247;-38
2023/07/05 02:17:53;;;;;;;0.20;0.20;;;29.70;79.60;;;30.14;65.38;94748.03;5097446;28;20186;-37
2023/07/05 02:20:20;;;;;;;0.30;0.30;;;29.70;79.60;;;30.14;65.52;94744.53;5096597;28;20196;-37
2023/07/05 02:22:47;;;;;;;0.20;0.20;;;29.70;79.60;;;30.12;65.17;94744.84;5096593;28;20295;-37
2023/07/05 02:25:14;;;;;;;0.30;0.30;;;29.70;79.70;;;30.12;65.19;94750.25;5097367;28;20243;-38
2023/07/05 02:27:42;;;;;;;0.38;0.38;;;29.70;79.60;;;30.12;65.08;94749.47;5096285;28;20202;-37
2023/07/05 02:30:11;;;;;;;0.30;0.30;;;29.70;79.70;;;30.11;65.51;94751.38;5097692;28;20226;-38
2023/07/05 02:32:38;;;;;;;0.22;0.22;;;29.70;79.70;;;30.10;65.20;94749.00;5097272;28;20215;-37
2023/07/05 02:35:08;;;;;;;0.30;0.30;;;29.70;79.70;;;30.10;65.03;94755.22;5097276;28;20228;-37
2023/07/05 02:37:36;;;;;;;0.22;0.22;;;29.70;79.70;;;30.10;65.56;94743.59;5096285;28;20237;-38
2023/07/05 02:40:04;;;;;;;0.20;0.20;;;29.70;79.70;;;30.08;65.62;94745.81;5096041;28;20204;-38
2023/07/05 02:42:31;;;;;;;0.35;0.35;;;29.70;79.80;;;30.06;65.15;94743.44;5097447;28;20278;-38
2023/07/05 02:44:58;;;;;;;0.30;0.30;;;29.60;79.80;;;30.07;65.13;94744.25;5096114;28;20258;-37
2023/07/05 02:47:25;;;;;;;0.20;0.20;;;29.60;79.80;;;30.04;65.12;94748.34;5097054;28;20205;-38
2023/07/05 02:49:53;;;;;;;0.30;0.30;;;29.60;79.80;;;30.05;65.39;94749.16;5096913;28;20194;-37
2023/07/05 02:52:20;;;;;;;0.20;0.20;;;29.60;79.80;;;30.03;65.05;94747.56;5097131;28;20218;-37
2023/07/05 02:54:49;;;;;;;0.30;0.30;;;29.60;79.80;;;30.02;65.04;94731.66;5097190;28;20272;-37
2023/07/05 02:57:16;;;;;;;0.20;0.20;;;29.60;79.80;;;30.00;65.23;94732.00;5096830;28;20186;-37
2023/07/05 02:59:43;;;;;;;0.20;0.20;;;29.60;79.90;;;30.02;65.85;94734.38;5096899;28;20277;-39
2023/07/05 03:02:10;;;;;;;0.28;0.28;;;29.60;79.90;;;29.99;65.58;94743.94;5096745;28;20194;-37
2023/07/05 03:04:42;;;;;;;0.20;0.20;;;29.60;79.90;;;29.98;65.81;94739.63;5095613;28;20197;-46
2023/07/05 03:07:09;;;;;;;0.20;0.20;;;29.60;80.00;;;29.98;65.33;94750.44;5096946;28;20575;-40
2023/07/05 03:09:36;;;;;;;0.30;0.30;;;29.60;79.90;;;29.97;65.41;94742.66;5096448;28;20214;-40
2023/07/05 03:12:04;;;;;;;0.20;0.20;;;29.60;80.00;;;29.97;65.45;94738.03;5096519;28;20190;-40
2023/07/05 03:14:31;;;;;;;0.32;0.32;;;29.60;80.00;;;29.96;65.65;94741.84;5112601;28;20218;-40
2023/07/05 03:16:58;;;;;;;0.30;0.30;;;29.60;80.00;;;29.95;65.49;94737.56;5097199;28;20267;-39
2023/07/05 03:19:25;;;;;;;0.30;0.30;;;29.60;80.00;;;29.94;65.48;94738.66;5095281;28;20202;-43
2023/07/05 03:21:52;;;;;;;0.28;0.28;;;29.60;80.00;;;29.93;66.05;94747.91;5096345;28;20273;-40
2023/07/05 03:24:19;;;;;;;0.20;0.20;;;29.60;80.00;;;29.92;65.78;94738.22;5096351;28;20201;-41
2023/07/05 03:26:52;;;;;;;0.40;0.40;;;29.50;80.00;;;29.91;66.12;94733.91;5095152;28;20660;-40
2023/07/05 03:29:19;;;;;;;0.40;0.40;;;29.50;80.10;;;29.91;65.53;94733.13;5095150;28;20544;-40
2023/07/05 03:31:46;;;;;;;0.30;0.30;;;29.50;80.00;;;29.90;65.42;94724.19;5095205;28;20216;-44
2023/07/05 03:34:16;;;;;;;0.30;0.30;;;29.50;80.00;;;29.90;66.35;94723.38;5096297;28;20763;-40
2023/07/05 03:36:43;;;;;;;0.20;0.20;;;29.50;80.10;;;29.89;65.73;94729.91;5096104;28;20220;-41
2023/07/05 03:39:15;;;;;;;0.28;0.28;;;29.50;80.10;;;29.88;65.61;94729.09;5094944;28;20577;-40
2023/07/05 03:41:42;;;;;;;0.20;0.20;;;29.50;80.20;;;29.87;65.40;94727.53;5096339;28;20278;-41
2023/07/05 03:44:09;;;;;;;0.20;0.20;;;29.50;80.10;;;29.86;66.12;94731.34;5095995;28;20218;-41
2023/07/05 03:46:36;;;;;;;0.30;0.30;;;29.50;80.20;;;29.85;65.75;94727.84;5095946;28;20197;-40
2023/07/05 03:49:03;;;;;;;0.30;0.30;;;29.50;80.10;;;29.84;65.57;94723.53;5095915;28;20619;-40
2023/07/05 03:51:30;;;;;;;0.30;0.30;;;29.50;80.20;;;29.84;65.84;94720.81;5095850;28;20274;-41
2023/07/05 03:53:58;;;;;;;0.30;0.30;;;29.50;80.30;;;29.83;65.56;94718.44;5095743;28;20214;-44
2023/07/05 03:56:27;;;;;;;0.20;0.20;;;29.40;81.00;;;29.83;65.86;94716.56;5096044;28;20193;-44
2023/07/05 03:58:55;;;;;;;0.30;0.30;;;29.40;80.20;;;29.82;65.72;94720.38;5095509;28;20526;-41
2023/07/05 04:01:25;;;;;;;0.32;0.32;;;29.40;80.20;;;29.81;66.07;94721.47;5094824;28;20204;-42
2023/07/05 04:03:59;;;;;;;0.30;0.30;;;29.40;80.30;;;29.82;65.99;94714.16;5094775;28;20194;-41
2023/07/05 04:06:33;;;;;;;0.30;0.30;;;29.50;80.40;;;29.80;66.43;94719.88;5096145;28;20205;-43
2023/07/05 04:09:00;;;;;;;0.20;0.20;;;29.40;80.40;;;29.80;66.23;94716.41;5095492;28;20622;-41
2023/07/05 04:11:29;;;;;;;0.30;0.30;;;29.40;80.30;;;29.80;66.34;94716.41;5095491;28;20232;-40
2023/07/05 04:13:57;;;;;;;0.30;0.30;;;29.40;80.30;;;29.78;66.12;94705.88;5095487;28;20218;-39
2023/07/05 04:16:26;;;;;;;0.20;0.20;;;29.40;80.30;;;29.80;66.11;94708.28;5094963;28;20191;-40
2023/07/05 04:18:56;;;;;;;0.30;0.30;;;29.40;80.40;;;29.79;66.00;94709.41;5095220;28;20219;-40
2023/07/05 04:21:25;;;;;;;0.20;0.20;;;29.40;80.40;;;29.78;65.94;94710.50;5095395;28;20621;-37
2023/07/05 04:23:52;;;;;;;0.28;0.28;;;29.40;80.40;;;29.77;65.89;94706.22;5094768;28;20201;-41
2023/07/05 04:26:23;;;;;;;0.20;0.20;;;29.40;80.40;;;29.77;66.15;94706.22;5095070;28;20699;-40
2023/07/05 04:28:50;;;;;;;0.20;0.20;;;29.40;80.50;;;29.77;66.64;94712.44;5095325;28;20178;-37
2023/07/05 04:31:29;;;;;;;0.20;0.20;;;29.40;80.50;;;29.76;65.99;94707.31;5095019;28;20199;-37
2023/07/05 04:34:00;;;;;;;0.30;0.30;;;29.40;80.60;;;29.76;66.68;94705.44;5095157;28;20201;-37
2023/07/05 04:36:27;;;;;;;0.20;0.20;;;29.40;80.50;;;29.76;66.08;94710.03;5095439;28;20191;-37
2023/07/05 04:38:57;;;;;;;0.30;0.30;;;29.40;80.50;;;29.75;65.98;94714.66;5094988;28;20681;-37
2023/07/05 04:41:25;;;;;;;0.30;0.30;;;29.40;80.50;;;29.76;66.41;94707.31;5095038;28;20194;-37
2023/07/05 04:43:53;;;;;;;0.20;0.20;;;29.40;80.50;;;29.77;66.61;94703.50;5095363;28;20285;-37
2023/07/05 04:46:20;;;;;;;0.30;0.30;;;29.40;80.50;;;29.75;66.31;94701.13;5095037;28;20186;-37
2023/07/05 04:48:48;;;;;;;0.40;0.40;;;29.40;80.60;;;29.76;66.19;94704.63;5095136;27;20230;-38
2023/07/05 04:51:16;;;;;;;0.30;0.30;;;29.40;80.60;;;29.76;66.02;94708.13;5095287;28;20709;-37
2023/07/05 04:53:43;;;;;;;0.20;0.20;;;29.40;80.60;;;29.77;66.85;94709.72;5094932;28;20238;-37
2023/07/05 04:56:13;;;;;;;0.40;0.40;;;29.40;80.60;;;29.76;66.58;94707.31;5094925;28;20190;-37
2023/07/05 04:58:40;;;;;;;0.30;0.30;;;29.40;80.70;;;29.77;66.70;94704.31;5094777;28;20194;-37
2023/07/05 05:01:08;;;;;;;0.25;0.25;;;29.40;80.60;;;29.77;66.46;94715.13;5094917;28;20255;-37
2023/07/05 05:03:35;;;;;;;0.30;0.30;;;29.40;80.70;;;29.79;66.28;94712.09;5094868;28;20256;-37
2023/07/05 05:06:02;;;;;;;0.30;0.30;;;29.40;80.60;;;29.78;66.38;94713.22;5095437;28;20198;-38
2023/07/05 05:08:30;;;;;;;0.20;0.20;;;29.40;80.70;;;29.80;66.97;94713.69;5094864;28;20305;-38
2023/07/05 05:11:01;;;;;;;0.30;0.30;;;29.40;80.70;;;29.79;66.50;94712.09;5094611;28;20642;-39
2023/07/05 05:13:31;;;;;;;0.30;0.30;;;29.40;80.70;;;29.80;66.26;94705.59;5093945;28;20199;-40
2023/07/05 05:15:58;;;;;;;0.20;0.20;;;29.40;80.70;;;29.80;66.39;94706.38;5094915;28;20194;-37
2023/07/05 05:18:29;;;;;;;0.30;0.30;;;29.40;80.70;;;29.80;66.25;94711.00;5094791;28;20195;-38
2023/07/05 05:20:57;;;;;;;0.22;0.22;;;29.40;80.70;;;29.81;66.54;94715.25;5094636;28;20262;-39
2023/07/05 05:23:26;;;;;;;0.30;0.30;;;29.40;80.80;;;29.81;66.82;94710.66;5094984;28;20293;-40
2023/07/05 05:25:53;;;;;;;0.20;0.20;;;29.40;80.70;;;29.80;66.83;94711.78;5093663;28;20227;-38
2023/07/05 05:28:21;;;;;;;0.20;0.20;;;29.40;80.70;;;29.81;66.50;94713.38;5097818;28;20529;-37
2023/07/05 05:30:49;;;;;;;0.30;0.30;;;29.40;80.70;;;29.81;66.90;94713.38;5097581;28;20194;-37
2023/07/05 05:33:18;;;;;;;0.20;0.20;;;29.40;80.80;;;29.81;66.83;94718.78;5098675;28;20246;-40
2023/07/05 05:35:50;;;;;;;0.30;0.30;;;29.40;80.80;;;29.82;66.95;94714.16;5098454;28;20202;-37
2023/07/05 05:38:19;;;;;;;0.30;0.30;;;29.40;80.90;;;29.82;66.54;94714.97;5098670;28;20188;-38
2023/07/05 05:40:50;;;;;;;0.20;0.20;;;29.40;80.80;;;29.83;67.00;94716.56;5098458;28;20260;-37
2023/07/05 05:43:19;;;;;;;0.30;0.30;;;29.40;80.80;;;29.83;66.53;94721.16;5098624;28;20176;-37
2023/07/05 05:45:46;;;;;;;0.30;0.30;;;29.40;80.80;;;29.83;66.25;94721.16;5097397;28;20233;-37
2023/07/05 05:48:14;;;;;;;0.30;0.30;;;29.40;80.80;;;29.82;66.61;94717.66;5098200;28;20203;-38
2023/07/05 05:50:41;;;;;;;0.22;0.22;;;29.40;80.90;;;29.83;66.33;94718.44;5097203;28;20264;-40
2023/07/05 05:53:10;;;;;;;0.30;0.30;;;29.40;80.80;;;29.84;66.58;94726.22;5098298;28;20261;-40
2023/07/05 05:55:40;;;;;;;0.20;0.20;;;29.40;80.80;;;29.85;66.96;94727.06;5098037;28;20207;-38
2023/07/05 05:58:09;;;;;;;0.30;0.30;;;29.40;80.90;;;29.84;66.55;94720.81;5098098;28;20174;-41
2023/07/05 06:00:38;;;;;;;0.30;0.30;;;29.40;80.90;;;29.84;66.66;94715.41;5097823;28;20188;-41
2023/07/05 06:03:06;;;;;;;0.20;0.20;;;29.40;80.80;;;29.85;67.02;94711.59;5098237;28;20282;-40
2023/07/05 06:05:35;;;;;;;0.28;0.28;;;29.40;80.90;;;29.85;66.33;94710.81;5098143;28;20289;-40
2023/07/05 06:08:02;;;;;;;0.20;0.20;;;29.40;80.90;;;29.86;66.42;94705.09;5097828;28;20196;-42
2023/07/05 06:10:32;;;;;;;0.30;0.30;;;29.40;81.00;;;29.86;66.84;94712.41;5097748;28;20203;-43
2023/07/05 06:12:59;;;;;;;0.30;0.30;;;29.50;81.80;;;29.86;66.64;94705.09;5098101;28;20191;-40
2023/07/05 06:15:27;;;;;;;0.30;0.30;;;29.50;81.00;;;29.87;66.38;94706.69;5098215;28;20278;-39
2023/07/05 06:17:54;;;;;;;0.40;0.40;;;29.40;81.00;;;29.89;66.90;94705.56;5097895;28;20186;-39
2023/07/05 06:20:24;;;;;;;0.20;0.20;;;29.50;81.00;;;29.90;66.58;94712.56;5097422;28;20188;-39
2023/07/05 06:22:51;;;;;;;0.30;0.30;;;29.50;81.00;;;29.89;66.54;94705.56;5097848;28;20270;-40
2023/07/05 06:25:19;;;;;;;0.30;0.30;;;29.50;81.10;;;29.91;66.52;94703.38;5097559;28;20262;-40
2023/07/05 06:27:46;;;;;;;0.30;0.30;;;29.50;81.00;;;29.91;66.32;94703.38;5096613;28;20183;-39
2023/07/05 06:30:13;;;;;;;0.40;0.40;;;29.50;81.00;;;29.91;67.05;94711.50;5097544;28;20570;-40
2023/07/05 06:32:40;;;;;;;0.20;0.20;;;29.50;81.00;;;29.93;66.82;94709.25;5097380;28;20703;-39
2023/07/05 06:35:07;;;;;;;0.30;0.30;;;29.50;81.00;;;29.94;67.00;94713.53;5097518;28;20606;-39
2023/07/05 06:37:35;;;;;;;0.30;0.30;;;29.50;81.00;;;29.95;66.61;94709.72;5097555;28;20203;-40
2023/07/05 06:40:03;;;;;;;0.30;0.30;;;29.50;81.00;;;29.95;66.46;94712.44;5096515;28;20233;-40
2023/07/05 06:42:30;;;;;;;0.20;0.20;;;29.50;81.10;;;29.93;66.65;94710.06;5097209;28;20257;-39
2023/07/05 06:45:06;;;;;;;0.30;0.30;;;29.50;81.00;;;29.96;66.76;94716.72;5113204;27;20189;-39
2023/07/05 06:47:34;;;;;;;0.30;0.30;;;29.50;81.10;;;29.97;66.51;94723.72;5097070;28;20192;-39
2023/07/05 06:50:01;;;;;;;0.30;0.30;;;29.50;81.00;;;29.97;66.52;94723.72;5097287;28;20195;-40
2023/07/05 06:52:28;;;;;;;0.30;0.30;;;29.50;81.00;;;29.98;67.03;94722.59;5097241;28;20274;-40
2023/07/05 06:54:55;;;;;;;0.40;0.40;;;29.50;81.00;;;29.99;66.37;94716.88;5096851;28;20606;-40
2023/07/05 06:57:22;;;;;;;0.30;0.30;;;29.50;81.00;;;29.99;66.44;94722.28;5097151;28;20214;-39
2023/07/05 06:59:49;;;;;;;0.30;0.30;;;29.60;81.10;;;30.00;67.09;94709.56;5096684;28;20236;-39
2023/07/05 07:02:16;;;;;;;0.30;0.30;;;29.50;81.10;;;30.01;66.35;94711.16;5097341;28;20183;-40
2023/07/05 07:04:44;;;;;;;0.20;0.20;;;29.60;81.20;;;30.01;66.38;94706.53;5096764;28;20615;-40
2023/07/05 07:07:11;;;;;;;0.30;0.30;;;29.60;81.10;;;30.03;67.02;94709.72;5096713;28;20323;-39
2023/07/05 07:09:40;;;;;;;0.20;0.20;;;29.60;81.10;;;30.03;66.58;94712.41;5096897;28;20202;-40
2023/07/05 07:12:09;;;;;;;0.20;0.20;;;29.60;81.10;;;30.05;66.32;94703.97;5096495;28;20631;-40
2023/07/05 07:14:36;;;;;;;0.22;0.22;;;29.60;81.10;;;30.05;67.11;94709.38;5095772;28;20260;-42
2023/07/05 07:17:04;;;;;;;0.20;0.20;;;29.60;81.10;;;30.06;66.55;94707.50;5096517;28;20187;-40
2023/07/05 07:19:31;;;;;;;0.30;0.30;;;29.60;81.10;;;30.07;67.08;94706.38;5096421;28;20699;-42
2023/07/05 07:21:58;;;;;;;0.20;0.20;;;29.60;81.10;;;30.07;66.76;94707.16;5095334;28;20635;-39
2023/07/05 07:24:28;;;;;;;0.30;0.30;;;29.60;81.10;;;30.07;67.00;94701.75;5096933;28;20191;-41
2023/07/05 07:26:56;;;;;;;0.30;0.30;;;29.60;81.10;;;30.09;66.63;94699.53;5096387;28;20231;-42
2023/07/05 07:29:24;;;;;;;0.22;0.22;;;29.60;81.20;;;30.10;66.74;94703.00;5096527;28;20291;-40
2023/07/05 07:31:51;;;;;;;0.30;0.30;;;29.60;81.10;;;30.11;66.90;94694.56;5095461;28;20279;-42
2023/07/05 07:34:19;;;;;;;0.30;0.30;;;29.60;81.10;;;30.12;67.00;94684.56;5096095;28;20298;-40
2023/07/05 07:36:46;;;;;;;0.20;0.20;;;29.60;81.10;;;30.13;66.71;94684.22;5096144;28;20206;-40
2023/07/05 07:39:14;;;;;;;0.20;0.20;;;29.60;81.10;;;30.14;66.31;94682.34;5096031;28;20209;-40
2023/07/05 07:41:41;;;;;;;0.30;0.30;;;29.60;81.10;;;30.15;66.91;94683.91;5095475;28;20215;-40
2023/07/05 07:44:11;;;;;;;0.30;0.30;;;29.70;81.10;;;30.15;67.08;94687.41;5096096;28;20370;-39
2023/07/05 07:46:39;;;;;;;0.30;0.30;;;29.70;81.20;;;30.15;66.79;94684.72;5095156;28;20202;-40
2023/07/05 07:49:10;;;;;;;0.30;0.30;;;29.70;81.10;;;30.16;66.42;94686.31;5096171;28;20269;-44
2023/07/05 07:51:39;;;;;;;0.32;0.32;;;29.70;81.10;;;30.17;66.68;94685.16;5094869;28;20249;-41
2023/07/05 07:54:15;;;;;;;0.20;0.20;;;29.70;81.10;;;30.18;66.33;94688.69;5095755;28;20248;-42
2023/07/05 07:56:45;;;;;;;0.30;0.30;;;29.70;81.10;;;30.19;67.05;94696.47;5095993;28;20213;-40
2023/07/05 07:59:13;;;;;;;0.30;0.30;;;29.70;81.10;;;30.21;66.34;94695.34;5095748;28;20190;-41
2023/07/05 08:01:41;;;;;;;0.32;0.32;;;29.70;81.10;;;30.21;66.85;94693.44;5095794;28;20293;-41
2023/07/05 08:04:11;;;;;;;0.30;0.30;;;29.70;81.10;;;30.21;66.28;94693.44;5095583;28;20267;-43
2023/07/05 08:06:48;;;;;;;0.20;0.20;;;29.80;81.20;;;30.23;66.52;94691.19;5095685;28;20197;-42
2023/07/05 08:09:22;;;;;;;0.30;0.30;;;29.80;81.10;;;30.24;66.53;94694.72;5095867;28;20183;-41
2023/07/05 08:11:51;;;;;;;0.30;0.30;;;29.80;81.10;;;30.24;66.87;94689.31;5094845;28;20692;-40
2023/07/05 08:14:18;;;;;;;0.30;0.30;;;29.80;81.10;;;30.23;66.59;94685.78;5094945;28;20551;-37
2023/07/05 08:16:46;;;;;;;0.30;0.30;;;29.70;81.00;;;30.25;66.45;94690.88;5095356;28;20222;-37
2023/07/05 08:19:15;;;;;;;0.30;0.30;;;29.80;81.00;;;30.26;66.55;94682.44;5095688;28;20198;-39
2023/07/05 08:21:44;;;;;;;0.30;0.30;;;29.80;81.10;;;30.26;66.83;94692.47;5094644;28;20249;-39
2023/07/05 08:24:12;;;;;;;0.30;0.30;;;29.80;81.10;;;30.28;66.26;94692.94;5095463;28;20196;-39
2023/07/05 08:26:54;;;;;;;0.30;0.30;;;29.80;81.00;;;30.26;66.27;94687.88;5094692;28;20558;-37
2023/07/05 08:29:23;;;;;;;0.30;0.30;;;29.70;81.00;;;30.28;66.48;94685.59;5095555;28;20225;-37
2023/07/05 08:31:50;;;;;;;0.30;0.30;;;29.80;81.10;;;30.29;66.44;94692.63;5095091;28;20195;-37
2023/07/05 08:34:18;;;;;;;0.22;0.22;;;29.80;81.00;;;30.30;66.60;94690.72;5095680;28;20211;-37
2023/07/05 08:36:46;;;;;;;0.20;0.20;;;29.80;81.00;;;30.30;66.69;94686.09;5095178;28;20700;-37
2023/07/05 08:39:14;;;;;;;0.30;0.30;;;29.80;81.00;;;30.31;66.54;94670.63;5095122;28;20626;-37
2023/07/05 08:41:46;;;;;;;0.30;0.30;;;29.80;81.10;;;30.32;66.22;94678.44;5094978;28;20308;-37
2023/07/05 08:44:31;;;;;;;0.20;0.20;;;29.80;81.00;;;30.31;66.54;94674.16;5095409;28;20271;-37
2023/07/05 08:47:32;;;;;;;0.20;0.20;;;29.80;81.00;;;30.29;66.31;94670.97;5095109;28;20214;-38
2023/07/05 08:50:26;;;;;;;0.30;0.30;;;29.80;81.00;;;30.29;66.33;94670.97;5095643;28;20184;-37
2023/07/05 08:53:10;;;;;;;0.22;0.22;;;29.80;80.90;;;30.31;66.12;94682.28;5095275;28;20262;-37
2023/07/05 08:56:04;;;;;;;0.30;0.30;;;29.80;81.00;;;30.32;65.94;94672.22;5095503;28;20198;-37
2023/07/05 08:58:41;;;;;;;0.20;0.20;;;29.80;81.00;;;30.33;66.49;94671.94;5095327;28;20205;-37
2023/07/05 09:01:24;;;;;;;0.30;0.30;;;29.80;81.00;;;30.34;66.57;94672.72;5095039;28;20218;-37
2023/07/05 09:03:51;;;;;;;0.30;0.30;;;29.80;80.90;;;30.34;65.88;94668.06;5098355;28;20503;-39
2023/07/05 09:06:45;;;;;;;0.20;0.20;;;29.80;81.00;;;30.35;66.63;94666.97;5098168;28;20197;-39
2023/07/05 09:09:34;;;;;;;0.32;0.32;;;29.80;80.90;;;30.34;66.49;94670.78;5099014;28;20187;-39
2023/07/05 09:12:34;;;;;;;0.30;0.30;;;29.80;80.90;;;30.35;66.32;94671.59;5097966;28;20255;-39
2023/07/05 09:15:20;;;;;;;0.30;0.30;;;29.80;80.90;;;30.37;66.14;94673.97;5099152;28;20203;-39
2023/07/05 09:18:04;;;;;;;0.28;0.28;;;29.80;80.90;;;30.37;66.23;94673.97;5099020;28;20186;-40
2023/07/05 09:21:10;;;;;;;0.22;0.22;;;29.80;80.90;;;30.37;66.10;94674.78;5099194;28;20179;-39
2023/07/05 09:23:50;;;;;;;0.30;0.30;;;29.80;80.90;;;30.39;66.44;94669.03;5097918;28;20193;-41
2023/07/05 09:26:43;;;;;;;0.30;0.30;;;29.80;80.90;;;30.38;65.84;94664.75;5098522;28;20228;-39
2023/07/05 09:29:32;;;;;;;0.30;0.30;;;29.90;80.90;;;30.40;66.53;94662.50;5097943;28;20192;-39
2023/07/05 09:32:12;;;;;;;0.20;0.20;;;29.90;80.90;;;30.41;66.37;94656.75;5098387;28;20190;-41
2023/07/05 09:34:51;;;;;;;0.20;0.20;;;29.90;81.70;;;30.42;66.38;94655.66;5098151;28;20203;-43
2023/07/05 09:37:23;;;;;;;0.22;0.22;;;29.90;80.90;;;30.45;66.06;94648.78;5098491;28;20269;-41
2023/07/05 09:40:15;;;;;;;0.28;0.28;;;29.90;81.00;;;30.45;65.96;94651.50;5097852;28;20361;-40
2023/07/05 09:42:55;;;;;;;0.20;0.20;;;29.90;81.00;;;30.48;65.93;94654.34;5098320;28;20189;-39
2023/07/05 09:45:23;;;;;;;0.20;0.20;;;29.90;81.00;;;30.49;65.82;94644.31;5097753;28;20196;-40
2023/07/05 09:48:04;;;;;;;0.30;0.30;;;29.90;81.00;;;30.51;66.08;94636.69;5098239;28;20192;-42
2023/07/05 09:50:32;;;;;;;0.30;0.30;;;30.00;81.00;;;30.55;66.19;94634.91;5098208;28;20193;-40
2023/07/05 09:53:35;;;;;;;0.28;0.28;;;30.00;81.00;;;30.54;65.93;94632.53;5098023;28;20278;-41
2023/07/05 09:56:17;;;;;;;0.20;0.20;;;30.00;80.90;;;30.56;65.93;94631.09;5097808;28;20652;-41
2023/07/05 09:58:44;;;;;;;0.20;0.20;;;30.00;80.90;;;30.57;66.23;94635.38;5098313;28;20205;-39
2023/07/05 10:01:21;;;;;;;0.30;0.30;;;30.00;80.80;;;30.60;65.67;94636.63;5113905;28;20246;-40
2023/07/05 10:04:01;;;;;;;0.30;0.30;;;30.00;80.70;;;30.59;66.09;94638.56;5097347;28;20197;-41
2023/07/05 10:06:29;;;;;;;0.30;0.30;;;30.00;80.70;;;30.61;65.65;94643.66;5098505;28;20189;-40
2023/07/05 10:09:10;;;;;;;0.22;0.22;;;30.00;80.70;;;30.62;65.96;94639.81;5097838;28;20194;-40
2023/07/05 10:11:47;;;;;;;0.30;0.30;;;30.00;80.70;;;30.62;66.12;94640.59;5097009;28;20214;-41
2023/07/05 10:14:19;;;;;;;0.30;0.30;;;30.10;80.70;;;30.63;66.11;94641.41;5097022;28;20507;-41
2023/07/05 10:16:55;;;;;;;0.40;0.40;;;30.00;80.60;;;30.62;66.07;94643.31;5098027;28;20651;-39
2023/07/05 10:19:29;;;;;;;0.30;0.30;;;30.10;80.60;;;30.63;65.46;94636.00;5097719;28;20241;-39
2023/07/05 10:22:16;;;;;;;0.30;0.30;;;30.10;80.60;;;30.63;65.77;94641.41;5096679;28;20184;-39
2023/07/05 10:24:51;;;;;;;0.30;0.30;;;30.10;80.60;;;30.63;65.32;94639.50;5097603;28;20232;-39
2023/07/05 10:27:27;;;;;;;0.30;0.30;;;30.10;80.60;;;30.64;65.96;94641.09;5097403;28;20268;-39
2023/07/05 10:30:06;;;;;;;0.30;0.30;;;30.10;80.60;;;30.65;65.67;94639.97;5097509;28;20191;-39
2023/07/05 10:32:33;;;;;;;0.40;0.40;;;30.10;80.60;;;30.66;65.30;94633.44;5097450;28;20257;-39
2023/07/05 10:35:01;;;;;;;0.20;0.20;;;30.10;80.60;;;30.69;65.58;94631.97;5097532;28;20222;-39
2023/07/05 10:37:37;;;;;;;0.30;0.30;;;30.00;80.60;;;30.70;65.51;94625.44;5097306;28;20289;-39
2023/07/05 10:40:10;;;;;;;0.20;0.20;;;30.10;80.50;;;30.71;65.78;94629.72;5097577;28;20191;-39